Time;durP1;ratioP1;P1;durP2;ratioP2;P2;SDS_P1;SDS_P2;PMS_P1;PMS_P2;Temp;Humidity;BMP_temperature;BMP_pressure;BME280_temperature;BME280_humidity;BME280_pressure;Samples;Min_cycle;Max_cycle;Signal;HPM_P1;HPM_P2
2023/01/28 00:02:17;;;;;;;1999.90;999.90;;;;;;;-0.73;100.00;97926.41;5105162;28;20483;-77
2023/01/28 00:04:43;;;;;;;1999.90;999.90;;;;;;;-0.65;100.00;97923.41;5113592;28;20114;-76
2023/01/28 00:07:09;;;;;;;1999.90;999.90;;;;;;;-0.79;100.00;97919.25;5113106;28;20119;-78
2023/01/28 00:09:34;;;;;;;1999.90;999.90;;;;;;;-0.90;100.00;97912.75;5113971;28;20453;-77
2023/01/28 00:11:59;;;;;;;1999.90;999.90;;;;;;;-0.98;100.00;97898.81;5113228;28;20535;-77
2023/01/28 00:14:24;;;;;;;1999.90;999.90;;;;;;;-0.96;100.00;97918.19;5113291;28;20637;-76
2023/01/28 00:16:50;;;;;;;1999.90;999.90;;;;;;;-0.96;100.00;97912.84;5113128;28;20035;-79
2023/01/28 00:19:15;;;;;;;1999.90;999.90;;;;;;;-0.94;100.00;97916.13;5113191;28;20483;-76
2023/01/28 00:21:42;;;;;;;1999.90;999.90;;;;;;;-0.89;100.00;97914.41;5113174;28;20387;-79
2023/01/28 00:24:08;;;;;;;1999.90;999.90;;;;;;;-0.81;100.00;97913.28;5113868;28;20092;-77
2023/01/28 00:26:34;;;;;;;1999.90;999.90;;;;;;;-0.88;100.00;97908.00;5113090;28;20031;-76
2023/01/28 00:28:59;;;;;;;1999.90;999.90;;;;;;;-0.77;100.00;97922.53;5112368;28;20030;-76
2023/01/28 00:31:26;;;;;;;1999.90;999.90;;;;;;;-0.85;100.00;97914.78;5112891;28;20030;-77
2023/01/28 00:33:53;;;;;;;1999.90;999.90;;;;;;;-0.69;100.00;97930.31;5113325;28;20039;-78
2023/01/28 00:36:20;;;;;;;1999.90;999.90;;;;;;;-0.68;100.00;97932.75;5113471;28;20031;-76
2023/01/28 00:38:50;;;;;;;1999.90;999.90;;;;;;;-0.85;100.00;97904.06;5115306;28;20038;-76
2023/01/28 00:41:18;;;;;;;1999.90;999.90;;;;;;;-0.83;100.00;97923.44;5113792;28;20035;-78
2023/01/28 00:43:44;;;;;;;1999.90;999.90;;;;;;;-0.78;100.00;97928.94;5113186;28;20020;-78
2023/01/28 00:46:11;;;;;;;1999.90;999.90;;;;;;;-0.60;100.00;97937.84;5112719;28;20027;-79
2023/01/28 00:48:38;;;;;;;1999.90;999.90;;;;;;;-0.58;100.00;97937.59;5112706;28;20016;-76
2023/01/28 00:51:04;;;;;;;1999.90;999.90;;;;;;;-0.56;100.00;97943.56;5112488;28;20024;-77
2023/01/28 00:53:30;;;;;;;1999.90;999.90;;;;;;;-0.65;100.00;97928.78;5092927;28;20035;-77
2023/01/28 00:55:55;;;;;;;1999.90;999.90;;;;;;;-0.53;100.00;97948.47;5092131;28;20490;-77
2023/01/28 00:58:22;;;;;;;1999.90;999.90;;;;;;;-0.48;100.00;97954.00;5092030;28;20039;-77
2023/01/28 01:00:48;;;;;;;1999.90;999.90;;;;;;;-0.52;100.00;97952.81;5091954;28;20090;-77
2023/01/28 01:03:14;;;;;;;1999.90;999.90;;;;;;;-0.50;100.00;97953.41;5091583;28;20403;-77
2023/01/28 01:05:39;;;;;;;1999.90;999.90;;;;;;;-0.50;100.00;97960.66;5092083;28;20112;-77
2023/01/28 01:08:04;;;;;;;1999.90;999.90;;;;;;;-0.56;100.00;97943.56;5091711;28;20083;-76
2023/01/28 01:10:30;;;;;;;1999.90;999.90;;;;;;;-0.46;100.00;97951.91;5091997;28;20110;-78
2023/01/28 01:12:56;;;;;;;1999.90;999.90;;;;;;;-0.47;100.00;97955.63;5092168;28;20044;-78
2023/01/28 01:15:22;;;;;;;1999.90;999.90;;;;;;;-0.54;100.00;97952.22;5092272;28;20668;-76
2023/01/28 01:17:48;;;;;;;1999.90;999.90;;;;;;;-0.46;100.00;97959.97;5092653;28;20017;-76
2023/01/28 01:20:20;;;;;;;1999.90;999.90;;;;;;;-0.36;100.00;97962.94;5091932;28;20427;-77
2023/01/28 01:22:46;;;;;;;1999.90;999.90;;;;;;;-0.44;100.00;97944.47;5091808;28;20023;-76
2023/01/28 01:25:13;;;;;;;1999.90;999.90;;;;;;;-0.43;100.00;97948.78;5091624;28;20034;-77
2023/01/28 01:27:38;;;;;;;1999.90;999.90;;;;;;;-0.48;100.00;97953.19;5091762;28;20111;-77
2023/01/28 01:30:06;;;;;;;1999.90;999.90;;;;;;;-0.28;100.00;97956.47;5092079;28;20066;-77
2023/01/28 01:32:33;;;;;;;1999.90;999.90;;;;;;;-0.38;100.00;97965.06;5091821;28;20034;-78
2023/01/28 01:34:59;;;;;;;1999.90;999.90;;;;;;;-0.29;100.00;97957.50;5091090;28;20411;-77
2023/01/28 01:37:24;;;;;;;1999.90;999.90;;;;;;;-0.31;100.00;97965.75;5090495;28;20115;-78
2023/01/28 01:39:50;;;;;;;1999.90;999.90;;;;;;;-0.33;100.00;97973.25;5091632;28;20020;-78
2023/01/28 01:42:15;;;;;;;1999.90;999.90;;;;;;;-0.31;100.00;97970.31;5091160;28;20027;-79
2023/01/28 01:44:57;;;;;;;1999.90;999.90;;;;;;;-0.27;100.00;97969.66;5091161;28;20028;-77
2023/01/28 01:47:51;;;;;;;1999.90;999.90;;;;;;;-0.27;100.00;97972.34;5091133;28;20028;-78
2023/01/28 01:50:30;;;;;;;1999.90;999.90;;;;;;;-0.23;100.00;97975.41;5084925;28;20085;-75
2023/01/28 01:53:01;;;;;;;1999.90;999.90;;;;;;;-0.31;100.00;97968.44;5090941;28;20032;-76
2023/01/28 01:55:30;;;;;;;1999.90;999.90;;;;;;;-0.30;100.00;97967.41;5091047;28;20160;-78
2023/01/28 01:58:00;;;;;;;1999.90;999.90;;;;;;;-0.32;100.00;97966.84;5090989;28;20017;-76
2023/01/28 02:00:25;;;;;;;1999.90;999.90;;;;;;;-0.33;100.00;97967.88;5091269;28;20028;-77
2023/01/28 02:02:52;;;;;;;1999.90;999.90;;;;;;;-0.43;100.00;97978.31;5090879;28;20764;-77
2023/01/28 02:05:20;;;;;;;1999.90;999.90;;;;;;;-0.46;100.00;97973.41;5090648;28;20077;-77
2023/01/28 02:07:48;;;;;;;1999.90;999.90;;;;;;;-0.56;100.00;97973.91;5090886;28;20040;-76
2023/01/28 02:10:15;;;;;;;1999.90;999.90;;;;;;;-0.65;100.00;97966.38;5091187;28;20035;-76
2023/01/28 02:12:46;;;;;;;1999.90;999.90;;;;;;;-0.64;100.00;97976.91;5090914;28;20399;-77
2023/01/28 02:15:19;;;;;;;1999.90;999.90;;;;;;;-0.67;100.00;97972.00;5090557;28;20024;-77
2023/01/28 02:17:45;;;;;;;1999.90;999.90;;;;;;;-0.62;100.00;97974.00;5090770;28;20063;-77
2023/01/28 02:20:21;;;;;;;1999.90;999.90;;;;;;;-0.73;100.00;97975.56;5090629;28;20024;-77
2023/01/28 02:23:02;;;;;;;1999.90;999.90;;;;;;;-0.78;100.00;97969.22;5089294;28;20123;-77
2023/01/28 02:25:45;;;;;;;1999.90;999.90;;;;;;;-0.79;100.00;97972.97;5090532;28;20039;-77
2023/01/28 02:28:44;;;;;;;1999.90;999.90;;;;;;;-0.79;100.00;97978.31;5090396;28;20028;-76
2023/01/28 02:31:22;;;;;;;1999.90;999.90;;;;;;;-0.85;100.00;97968.47;5090656;28;20023;-78
2023/01/28 02:33:54;;;;;;;1999.90;999.90;;;;;;;-0.96;100.00;97979.94;5090342;28;20097;-78
2023/01/28 02:36:36;;;;;;;1999.90;999.90;;;;;;;-0.97;100.00;97981.00;5090344;28;20071;-77
2023/01/28 02:39:09;;;;;;;1999.90;999.90;;;;;;;-1.02;100.00;97975.44;5089632;28;20031;-77
2023/01/28 02:41:41;;;;;;;1999.90;999.90;;;;;;;-1.11;100.00;97972.25;5090433;28;20036;-76
2023/01/28 02:44:06;;;;;;;1999.90;999.90;;;;;;;-1.00;100.00;97981.44;5090389;28;20020;-77
2023/01/28 02:49:45;;;;;;;1999.90;999.90;;;;;;;-0.98;100.00;97965.91;5095411;28;20050;-77
2023/01/28 02:55:52;;;;;;;1999.90;999.90;;;;;;;-0.87;100.00;97976.75;5094092;28;20121;-77
2023/01/28 02:58:31;;;;;;;1999.90;999.90;;;;;;;-0.92;100.00;97973.91;5094540;28;20043;-77
2023/01/28 03:01:00;;;;;;;1999.90;999.90;;;;;;;-0.94;100.00;97969.81;5094399;28;20028;-79
2023/01/28 03:03:34;;;;;;;1999.90;999.90;;;;;;;-0.93;100.00;97976.81;5099214;28;20028;-77
2023/01/28 03:06:07;;;;;;;1999.90;999.90;;;;;;;-0.78;100.00;97979.94;5097348;28;20404;-77
2023/01/28 03:36:48;;;;;;;;;;;;;;;-0.62;100.00;97990.94;5114525;28;20061;-77
2023/01/28 03:39:14;;;;;;;1999.90;999.90;;;;;;;-0.65;100.00;97995.91;5114509;28;19916;-78
2023/01/28 03:41:40;;;;;;;1999.90;999.90;;;;;;;-0.67;100.00;97984.59;5113994;28;20430;-78
2023/01/28 03:46:49;;;;;;;1999.90;999.90;;;;;;;-0.54;100.00;97997.88;5114195;28;20026;-78
2023/01/28 03:49:15;;;;;;;1999.90;999.90;;;;;;;-0.62;100.00;97985.56;5113852;28;20036;-79
2023/01/28 03:51:40;;;;;;;1999.90;999.90;;;;;;;-0.65;100.00;97988.69;5113687;28;20035;-76
2023/01/28 03:54:06;;;;;;;1999.90;999.90;;;;;;;-0.69;100.00;97989.38;5113594;28;20039;-78
2023/01/28 03:56:36;;;;;;;1999.90;999.90;;;;;;;-0.64;100.00;97990.34;5113776;28;20030;-77
2023/01/28 03:59:02;;;;;;;1999.90;999.90;;;;;;;-0.64;100.00;97992.19;5112506;28;20031;-79
2023/01/28 04:01:28;;;;;;;1999.90;999.90;;;;;;;-0.58;100.00;97997.50;5113412;28;20028;-79
2023/01/28 04:03:53;;;;;;;1999.90;999.90;;;;;;;-0.51;100.00;97994.75;5113575;28;20027;-78
2023/01/28 04:06:18;;;;;;;1999.90;999.90;;;;;;;-0.63;100.00;97993.84;5113630;28;20027;-78
2023/01/28 04:08:51;;;;;;;1999.90;999.90;;;;;;;-0.67;100.00;98003.38;5113596;28;20452;-78
2023/01/28 04:11:19;;;;;;;1999.90;999.90;;;;;;;-0.77;100.00;97992.34;5113500;28;20028;-79
2023/01/28 04:13:46;;;;;;;1999.90;999.90;;;;;;;-0.65;100.00;97996.75;5113512;28;20023;-76
2023/01/28 04:16:13;;;;;;;1999.90;999.90;;;;;;;-0.58;100.00;98002.06;5113539;28;20027;-78
2023/01/28 04:18:39;;;;;;;1999.90;999.90;;;;;;;-0.66;100.00;97989.72;5113358;28;20032;-77
2023/01/28 04:21:04;;;;;;;1999.90;999.90;;;;;;;-0.65;100.00;97998.59;5113277;28;20111;-78
2023/01/28 04:23:30;;;;;;;1999.90;999.90;;;;;;;-0.74;100.00;98000.78;5111875;28;20479;-77
2023/01/28 04:25:55;;;;;;;1999.90;999.90;;;;;;;-0.70;100.00;98009.22;5113167;28;20030;-77
2023/01/28 04:28:21;;;;;;;1999.90;999.90;;;;;;;-0.73;100.00;97998.91;5113380;28;20020;-79
2023/01/28 04:30:46;;;;;;;1999.90;999.90;;;;;;;-0.80;100.00;97995.47;5113318;28;20468;-77
2023/01/28 04:33:12;;;;;;;1999.90;999.90;;;;;;;-0.83;100.00;98009.34;5112836;28;20476;-78
2023/01/28 04:35:37;;;;;;;1999.90;999.90;;;;;;;-0.88;100.00;98004.66;5113019;27;20472;-77
2023/01/28 04:38:03;;;;;;;1999.90;999.90;;;;;;;-0.86;100.00;98012.47;5112922;27;20039;-77
2023/01/28 04:40:28;;;;;;;1999.90;999.90;;;;;;;-0.86;100.00;98007.09;5113299;28;20103;-77
2023/01/28 04:42:54;;;;;;;1999.90;999.90;;;;;;;-0.85;100.00;98011.44;5112964;28;20126;-76
2023/01/28 04:45:21;;;;;;;1999.90;999.90;;;;;;;-0.77;100.00;98028.06;5112631;28;20498;-77
2023/01/28 04:47:47;;;;;;;1999.90;999.90;;;;;;;-0.81;100.00;98031.41;5112549;28;20076;-77
2023/01/28 04:50:12;;;;;;;1999.90;999.90;;;;;;;-0.85;100.00;98024.84;5114098;28;20106;-79
2023/01/28 04:52:38;;;;;;;1999.90;999.90;;;;;;;-0.85;100.00;98027.53;5116167;28;20019;-76
2023/01/28 04:55:04;;;;;;;1999.90;999.90;;;;;;;-0.93;100.00;98025.94;5112750;28;20023;-78
2023/01/28 04:57:29;;;;;;;1999.90;999.90;;;;;;;-0.99;100.00;98026.00;5113424;28;20172;-78
2023/01/28 04:59:54;;;;;;;1999.90;999.90;;;;;;;-1.18;100.00;98017.06;5107339;28;20099;-78
2023/01/28 05:02:20;;;;;;;1999.90;999.90;;;;;;;-1.14;100.00;98031.72;5090669;28;20024;-77
2023/01/28 05:04:45;;;;;;;1999.90;999.90;;;;;;;-1.08;100.00;98033.50;5108566;28;20846;-78
2023/01/28 05:07:11;;;;;;;1999.90;999.90;;;;;;;-1.11;100.00;98044.69;5112210;28;20136;-79
2023/01/28 05:09:36;;;;;;;1999.90;999.90;;;;;;;-1.08;100.00;98039.72;5112852;28;20149;-78
2023/01/28 05:12:02;;;;;;;1999.90;999.90;;;;;;;-1.05;100.00;98041.13;5112332;28;20027;-79
2023/01/28 05:14:27;;;;;;;1999.90;999.90;;;;;;;-1.07;100.00;98049.38;5112139;28;20031;-81
2023/01/28 05:16:53;;;;;;;1999.90;999.90;;;;;;;-1.15;100.00;98043.47;5112195;28;20020;-80
2023/01/28 05:19:19;;;;;;;1999.90;999.90;;;;;;;-1.09;100.00;98056.00;5112178;28;20067;-80
2023/01/28 05:21:45;;;;;;;1999.90;999.90;;;;;;;-1.02;100.00;98054.09;5100295;28;20117;-78
2023/01/28 05:24:10;;;;;;;1999.90;999.90;;;;;;;-1.11;100.00;98056.25;5091624;28;20035;-79
2023/01/28 05:26:36;;;;;;;1999.90;999.90;;;;;;;-1.19;100.00;98064.53;5091685;28;20488;-80
2023/01/28 05:29:02;;;;;;;1999.90;999.90;;;;;;;-1.30;100.00;98051.84;5091606;28;20082;-79
2023/01/28 05:31:27;;;;;;;1999.90;999.90;;;;;;;-1.32;100.00;98064.66;5091647;28;20073;-78
2023/01/28 05:33:53;;;;;;;1999.90;999.90;;;;;;;-1.26;100.00;98060.28;5091479;28;20522;-79
2023/01/28 05:36:18;;;;;;;1999.90;999.90;;;;;;;-1.18;100.00;98055.47;5091319;28;20054;-77
2023/01/28 05:38:43;;;;;;;1999.90;999.90;;;;;;;-1.16;100.00;98064.09;5091349;28;20027;-78
2023/01/28 05:41:09;;;;;;;1999.90;999.90;;;;;;;-1.11;100.00;98066.97;5091874;28;20032;-77
2023/01/28 05:43:34;;;;;;;1999.90;999.90;;;;;;;-1.32;100.00;98040.53;5091262;28;20063;-78
2023/01/28 05:45:59;;;;;;;1999.90;999.90;;;;;;;-1.24;100.00;98050.16;5091116;28;20058;-79
2023/01/28 05:48:25;;;;;;;1999.90;999.90;;;;;;;-1.13;100.00;98074.41;5091171;28;20052;-79
2023/01/28 05:50:50;;;;;;;1999.90;999.90;;;;;;;-1.15;100.00;98068.44;5091191;28;20024;-80
2023/01/28 05:53:15;;;;;;;1999.90;999.90;;;;;;;-1.13;100.00;98077.09;5091123;28;20028;-78
2023/01/28 05:55:41;;;;;;;1999.90;999.90;;;;;;;-1.12;100.00;98081.44;5091105;28;20427;-78
2023/01/28 05:58:06;;;;;;;1999.90;999.90;;;;;;;-1.07;100.00;98078.91;5091291;28;20027;-79
2023/01/28 06:00:31;;;;;;;1999.90;999.90;;;;;;;-1.12;100.00;98072.53;5091041;28;20020;-80
2023/01/28 06:02:57;;;;;;;1999.90;999.90;;;;;;;-1.05;100.00;98075.19;5091081;28;20024;-79
2023/01/28 06:05:22;;;;;;;1999.90;999.90;;;;;;;-1.00;100.00;98080.72;5091061;28;20123;-81
2023/01/28 06:07:48;;;;;;;1999.90;999.90;;;;;;;-1.03;100.00;98075.81;5090849;28;20150;-78
2023/01/28 06:10:13;;;;;;;1999.90;999.90;;;;;;;-0.98;100.00;98082.16;5089972;28;20065;-79
2023/01/28 06:12:39;;;;;;;1999.90;999.90;;;;;;;-0.98;100.00;98084.00;5090943;28;20396;-80
2023/01/28 06:15:05;;;;;;;1999.90;999.90;;;;;;;-1.02;100.00;98077.44;5090686;28;20129;-79
2023/01/28 06:17:30;;;;;;;1999.90;999.90;;;;;;;-1.05;100.00;98091.28;5090628;28;20107;-80
2023/01/28 06:19:56;;;;;;;1999.90;999.90;;;;;;;-1.07;100.00;98089.63;5093944;28;20430;-79
2023/01/28 06:22:21;;;;;;;1999.90;999.90;;;;;;;-0.99;100.00;98095.78;5105039;28;20031;-80
2023/01/28 06:24:46;;;;;;;1999.90;999.90;;;;;;;-0.88;100.00;98087.03;5108697;28;20027;-80
2023/01/28 06:27:12;;;;;;;1999.90;999.90;;;;;;;-0.95;100.00;98088.94;5089052;28;20005;-80
2023/01/28 06:29:37;;;;;;;1999.90;999.90;;;;;;;-0.82;100.00;98102.25;5090726;28;20020;-81
2023/01/28 06:32:03;;;;;;;1999.90;999.90;;;;;;;-0.94;100.00;98085.22;5090943;28;20024;-79
2023/01/28 06:34:28;;;;;;;1999.90;999.90;;;;;;;-0.82;100.00;98094.22;5090288;28;20119;-79
2023/01/28 06:36:54;;;;;;;1999.90;999.90;;;;;;;-0.78;100.00;98106.94;5091985;28;20056;-79
2023/01/28 06:39:25;;;;;;;1999.90;999.90;;;;;;;-0.95;100.00;98083.56;5116942;28;20039;-79
2023/01/28 06:41:51;;;;;;;1999.90;999.90;;;;;;;-0.91;100.00;98087.47;5112752;28;20020;-79
2023/01/28 06:44:16;;;;;;;1999.90;999.90;;;;;;;-0.83;100.00;98114.03;5111246;28;20024;-78
2023/01/28 06:46:42;;;;;;;1999.90;999.90;;;;;;;-0.70;100.00;98117.44;5112362;28;20073;-84
2023/01/28 06:49:07;;;;;;;1999.90;999.90;;;;;;;-0.69;100.00;98118.25;5114111;28;20024;-85
2023/01/28 06:51:33;;;;;;;1999.90;999.90;;;;;;;-0.69;100.00;98123.63;5115264;28;20065;-87
2023/01/28 06:53:58;;;;;;;1999.90;999.90;;;;;;;-0.75;100.00;98119.94;5112307;28;20496;-81
2023/01/28 06:56:23;;;;;;;1999.90;999.90;;;;;;;-0.65;100.00;98124.81;5111011;28;20028;-85
2023/01/28 06:58:49;;;;;;;1999.90;999.90;;;;;;;-0.77;100.00;98113.16;5111015;28;20088;-80
2023/01/28 07:01:14;;;;;;;1999.90;999.90;;;;;;;-0.68;100.00;98131.44;5110341;28;20035;-78
2023/01/28 07:03:40;;;;;;;1999.90;999.90;;;;;;;-0.63;100.00;98133.50;5110920;28;20107;-83
2023/01/28 07:06:05;;;;;;;1999.90;999.90;;;;;;;-0.71;100.00;98133.75;5111495;28;20058;-87
2023/01/28 07:08:31;;;;;;;1999.90;999.90;;;;;;;-0.63;100.00;98136.19;5114043;28;20036;-81
2023/01/28 07:10:57;;;;;;;1999.90;999.90;;;;;;;-0.63;100.00;98128.13;5112208;28;20034;-84
2023/01/28 07:13:22;;;;;;;1999.90;999.90;;;;;;;-0.68;100.00;98136.81;5109336;28;20020;-78
2023/01/28 07:15:48;;;;;;;1999.90;999.90;;;;;;;-0.68;100.00;98127.94;5090250;28;20063;-82
2023/01/28 07:18:14;;;;;;;1999.90;999.90;;;;;;;-0.63;100.00;98144.25;5088636;28;20058;-78
2023/01/28 07:20:39;;;;;;;1999.90;999.90;;;;;;;-0.63;100.00;98141.56;5089802;28;20024;-79
2023/01/28 07:23:04;;;;;;;1999.90;999.90;;;;;;;-0.71;100.00;98131.06;5090049;28;20028;-82
2023/01/28 07:25:30;;;;;;;1999.90;999.90;;;;;;;-0.53;100.00;98143.75;5090028;28;20111;-85
2023/01/28 07:27:55;;;;;;;1999.90;999.90;;;;;;;-0.59;100.00;98145.41;5088802;28;20035;-81
2023/01/28 07:30:23;;;;;;;1999.90;999.90;;;;;;;-0.64;100.00;98137.22;5090184;28;20508;-81
2023/01/28 07:32:54;;;;;;;1999.90;999.90;;;;;;;-0.43;100.00;98165.53;5090609;28;20020;-79
2023/01/28 07:35:23;;;;;;;1999.90;999.90;;;;;;;-0.54;100.00;98145.59;5093414;28;20051;-83
2023/01/28 07:37:59;;;;;;;1999.90;999.90;;;;;;;-0.35;100.00;98160.72;5094510;28;20036;-86
2023/01/28 07:40:25;;;;;;;1999.90;999.90;;;;;;;-0.35;100.00;98165.28;5096321;28;20036;-82
2023/01/28 07:42:52;;;;;;;1999.90;999.90;;;;;;;-0.34;100.00;98159.66;5094862;28;20032;-81
2023/01/28 07:45:18;;;;;;;1999.90;999.90;;;;;;;-0.31;100.00;98172.66;5095035;28;20035;-84
2023/01/28 07:47:43;;;;;;;1999.90;999.90;;;;;;;-0.33;100.00;98169.38;5094836;28;20031;-86
2023/01/28 07:50:10;;;;;;;1999.90;999.90;;;;;;;-0.33;100.00;98172.06;5095473;28;20032;-84
2023/01/28 07:52:43;;;;;;;1999.90;999.90;;;;;;;-0.30;100.00;98177.00;5095491;28;20031;-84
2023/01/28 07:55:14;;;;;;;1999.90;999.90;;;;;;;-0.21;100.00;98170.28;5093883;28;20682;-79
2023/01/28 07:58:07;;;;;;;1999.90;999.90;;;;;;;-0.14;100.00;98181.81;5092685;28;20058;-84
2023/01/28 08:00:37;;;;;;;1999.90;999.90;;;;;;;-0.06;100.00;98178.81;5094059;28;20095;-82
2023/01/28 08:03:06;;;;;;;1999.90;999.90;;;;;;;-0.05;100.00;98174.28;5093950;28;20031;-82
2023/01/28 08:05:39;;;;;;;1999.90;999.90;;;;;;;0.03;100.00;98181.22;5095618;28;20028;-83
2023/01/28 08:08:05;;;;;;;1999.90;999.90;;;;;;;-0.02;100.00;98169.28;5093821;28;20048;-83
2023/01/28 08:10:31;;;;;;;1999.90;999.90;;;;;;;0.02;100.00;98176.91;5093159;28;20031;-80
2023/01/28 08:12:57;;;;;;;1999.90;999.90;;;;;;;0.00;100.00;98180.63;5093587;28;20423;-80
2023/01/28 08:15:23;;;;;;;1999.90;999.90;;;;;;;0.02;100.00;98188.47;5111232;28;20027;-82
2023/01/28 08:17:49;;;;;;;1999.90;999.90;;;;;;;0.02;100.00;98180.41;5114189;28;20382;-84
2023/01/28 08:20:15;;;;;;;1999.90;999.90;;;;;;;0.06;100.00;98191.53;5114616;28;20080;-86
2023/01/28 08:22:40;;;;;;;1999.90;999.90;;;;;;;0.08;100.00;98194.81;5116223;28;20031;-86
2023/01/28 08:25:06;;;;;;;1999.90;999.90;;;;;;;-0.03;100.00;98191.81;5117387;28;20114;-85
2023/01/28 08:27:31;;;;;;;1999.90;999.90;;;;;;;-0.02;100.00;98204.22;5125278;28;20038;-83
2023/01/28 08:29:56;;;;;;;1999.90;999.90;;;;;;;0.03;100.00;98203.56;5121270;28;20024;-87
2023/01/28 08:32:22;;;;;;;1999.90;999.90;;;;;;;0.05;100.00;98190.72;5115605;28;20388;-82
2023/01/28 08:34:47;;;;;;;1999.90;999.90;;;;;;;0.13;100.00;98197.66;5112880;28;20119;-83
2023/01/28 08:37:12;;;;;;;1999.90;999.90;;;;;;;0.31;100.00;98195.00;5113139;28;20034;-78
2023/01/28 08:39:38;;;;;;;1999.90;999.90;;;;;;;0.55;100.00;98210.22;5113098;28;20041;-80
2023/01/28 08:42:04;;;;;;;1999.90;999.90;;;;;;;0.51;100.00;98196.41;5112199;28;20126;-83
2023/01/28 08:44:30;;;;;;;1999.90;999.90;;;;;;;0.54;100.00;98211.25;5112820;28;20015;-81
2023/01/28 08:46:55;;;;;;;1999.90;999.90;;;;;;;0.61;100.00;98212.00;5112605;28;20023;-85
2023/01/28 08:49:21;;;;;;;1999.90;999.90;;;;;;;0.59;100.00;98208.75;5113042;28;21353;-86
2023/01/28 08:51:49;;;;;;;1999.90;999.90;;;;;;;0.54;100.00;98211.25;5112598;28;20073;-80
2023/01/28 08:54:14;;;;;;;1999.90;999.90;;;;;;;0.56;100.00;98205.66;5112988;28;20027;-78
2023/01/28 08:56:43;;;;;;;1999.90;999.90;;;;;;;0.70;100.00;98216.03;5111209;28;20118;-87
2023/01/28 08:59:10;;;;;;;1999.90;999.90;;;;;;;0.77;100.00;98215.97;5108050;28;20020;-88
2023/01/28 09:01:38;;;;;;;1999.90;999.90;;;;;;;0.82;100.00;98219.59;5107787;28;20028;-85
2023/01/28 09:04:03;;;;;;;1999.90;999.90;;;;;;;0.86;100.00;98219.97;5101945;28;20015;-79
2023/01/28 09:06:29;;;;;;;1999.90;999.90;;;;;;;0.76;100.00;98223.22;5102269;28;20537;-83
2023/01/28 09:09:01;;;;;;;1999.90;999.90;;;;;;;0.68;100.00;98223.53;5100269;28;20036;-80
2023/01/28 09:11:30;;;;;;;1999.90;999.90;;;;;;;0.59;100.00;98219.50;5102990;28;20028;-79
2023/01/28 09:13:57;;;;;;;1999.90;999.90;;;;;;;0.52;100.00;98222.28;5104394;28;20085;-79
2023/01/28 09:16:22;;;;;;;1999.90;999.90;;;;;;;0.51;100.00;98227.84;5108089;28;20027;-79
2023/01/28 09:18:47;;;;;;;1999.90;999.90;;;;;;;0.60;100.00;98223.00;5101521;28;20110;-84
2023/01/28 09:21:13;;;;;;;1999.90;999.90;;;;;;;0.97;100.00;98240.78;5103959;28;20118;-82
2023/01/28 09:23:39;;;;;;;1999.90;999.90;;;;;;;0.77;100.00;98243.72;5101863;28;20059;-87
2023/01/28 09:26:05;;;;;;;1999.90;999.90;;;;;;;0.81;100.00;98244.91;5101879;28;20019;-84
2023/01/28 09:28:31;;;;;;;1999.90;999.90;;;;;;;0.79;100.00;98246.97;5099868;28;20027;-79
2023/01/28 09:31:02;;;;;;;1999.90;999.90;;;;;;;0.86;100.00;98247.72;5094692;28;20040;-79
2023/01/28 09:33:28;;;;;;;1999.90;999.90;;;;;;;0.92;100.00;98246.00;5099860;28;20020;-76
2023/01/28 09:35:53;;;;;;;1999.90;999.90;;;;;;;0.98;100.00;98245.09;5098627;28;20077;-76
2023/01/28 09:38:19;;;;;;;1999.90;999.90;;;;;;;0.88;100.00;98261.78;5100817;28;20024;-77
2023/01/28 09:40:44;;;;;;;1999.90;999.90;;;;;;;0.84;100.00;98252.53;5099953;28;20422;-77
2023/01/28 09:43:26;;;;;;;1999.90;999.90;;;;;;;0.87;100.00;98253.94;5099525;28;20019;-77
2023/01/28 09:45:55;;;;;;;1999.90;999.90;;;;;;;0.94;100.00;98255.47;5100432;28;20571;-78
2023/01/28 09:48:48;;;;;;;1999.90;999.90;;;;;;;1.12;100.00;98257.34;5103603;28;20073;-77
2023/01/28 09:51:39;;;;;;;1999.90;999.90;;;;;;;1.26;100.00;98263.34;5102564;28;20069;-76
2023/01/28 09:54:13;;;;;;;1999.90;999.90;;;;;;;1.39;100.00;98257.78;5096782;28;20050;-78
2023/01/28 09:56:45;;;;;;;1999.90;999.90;;;;;;;1.21;100.00;98239.00;5099436;28;20054;-78
2023/01/28 09:59:20;;;;;;;1999.90;999.90;;;;;;;1.16;100.00;98257.72;5092015;28;20027;-78
2023/01/28 10:02:05;;;;;;;1999.90;999.90;;;;;;;1.15;100.00;98272.22;5090482;28;20032;-79
2023/01/28 10:04:46;;;;;;;1999.90;999.90;;;;;;;1.46;100.00;98266.59;5096213;28;20062;-77
2023/01/28 10:07:39;;;;;;;1999.90;999.90;;;;;;;1.34;100.00;98265.75;5089322;28;20446;-78
2023/01/28 10:10:47;;;;;;;1999.90;999.90;;;;;;;1.47;100.00;98265.56;5100455;28;20049;-76
2023/01/28 10:13:36;;;;;;;1999.90;999.90;;;;;;;1.29;100.00;98262.91;5056261;28;20036;-77
2023/01/28 10:16:20;;;;;;;1999.90;999.90;;;;;;;1.26;100.00;98264.19;5097964;28;20023;-78
2023/01/28 10:18:54;;;;;;;1999.90;999.90;;;;;;;1.25;100.00;98267.13;5109827;28;20036;-78
2023/01/28 10:21:24;;;;;;;1999.90;999.90;;;;;;;1.23;100.00;98269.19;5098454;28;20387;-78
2023/01/28 10:24:17;;;;;;;1999.90;999.90;;;;;;;1.12;100.00;98265.44;5092029;28;20023;-78
2023/01/28 10:26:43;;;;;;;1999.90;999.90;;;;;;;1.16;100.00;98274.66;5109612;28;20031;-78
2023/01/28 10:29:16;;;;;;;1999.90;999.90;;;;;;;1.10;100.00;98269.41;5094836;28;20073;-78
2023/01/28 10:31:52;;;;;;;1999.90;999.90;;;;;;;1.10;100.00;98255.94;5104985;28;20515;-78
2023/01/28 10:34:18;;;;;;;1999.90;999.90;;;;;;;1.28;100.00;98261.28;5095177;28;20418;-77
2023/01/28 10:36:43;;;;;;;1999.90;999.90;;;;;;;1.35;100.00;98268.19;5099324;28;20028;-78
2023/01/28 10:39:14;;;;;;;1999.90;999.90;;;;;;;1.36;100.00;98261.75;5102597;28;20023;-80
2023/01/28 10:41:39;;;;;;;1999.90;999.90;;;;;;;1.29;100.00;98262.91;5092632;28;20027;-79
2023/01/28 10:44:04;;;;;;;1999.90;999.90;;;;;;;1.36;100.00;98267.16;5103794;28;20036;-79
2023/01/28 10:46:33;;;;;;;1999.90;999.90;;;;;;;1.34;100.00;98271.13;5089172;28;20150;-81
2023/01/28 10:49:03;;;;;;;1999.90;999.90;;;;;;;1.25;100.00;98269.81;5101830;28;20568;-78
2023/01/28 10:51:37;;;;;;;1999.90;999.90;;;;;;;1.22;100.00;98273.78;5091412;28;20024;-77
2023/01/28 10:54:16;;;;;;;1999.90;999.90;;;;;;;1.20;100.00;98273.19;5102949;28;20020;-77
2023/01/28 10:56:42;;;;;;;1999.90;999.90;;;;;;;1.19;100.00;98262.66;5098763;28;20059;-78
2023/01/28 10:59:40;;;;;;;1999.90;999.90;;;;;;;1.18;100.00;98267.22;5108465;28;20016;-77
2023/01/28 11:02:31;;;;;;;1999.90;999.90;;;;;;;1.13;100.00;98266.25;5054072;28;20055;-77
2023/01/28 11:05:00;;;;;;;1999.90;999.90;;;;;;;1.05;100.00;98252.03;5108047;28;20361;-77
2023/01/28 11:07:25;;;;;;;1999.90;999.90;;;;;;;1.22;100.00;98267.56;5094251;28;20531;-78
2023/01/28 11:09:51;;;;;;;1999.90;999.90;;;;;;;1.36;100.00;98256.38;5108884;28;20047;-77
2023/01/28 11:12:25;;;;;;;1999.90;999.90;;;;;;;1.33;100.00;98269.47;5099706;28;20114;-77
2023/01/28 11:14:59;;;;;;;1999.90;999.90;;;;;;;1.37;100.00;98265.28;5103400;28;20035;-79
2023/01/28 11:17:28;;;;;;;1999.90;999.90;;;;;;;1.32;100.00;98262.44;5111253;28;20031;-78
2023/01/28 11:19:57;;;;;;;1999.90;999.90;;;;;;;1.23;100.00;98269.19;5098176;28;20035;-77
2023/01/28 11:22:31;;;;;;;1999.90;999.90;;;;;;;1.28;100.00;98255.88;5114468;28;20023;-78
2023/01/28 11:24:58;;;;;;;1999.90;999.90;;;;;;;1.30;100.00;98265.38;5102862;28;20028;-79
2023/01/28 11:27:29;;;;;;;1999.90;999.90;;;;;;;1.35;100.00;98256.59;5111324;28;20050;-78
2023/01/28 11:30:01;;;;;;;1999.90;999.90;;;;;;;1.41;100.00;98253.00;5098105;27;20043;-78
2023/01/28 11:32:28;;;;;;;1999.90;999.90;;;;;;;1.45;100.00;98256.88;5106312;28;20061;-77
2023/01/28 11:34:56;;;;;;;1999.90;999.90;;;;;;;1.34;100.00;98253.09;5105196;28;20027;-76